Selected Arizona METAR Reports


Metar stations are listed by distance from this station - near to far. The 'official' reporting station for the Greater Phoenix area is KPHX - Phoenix/Sky Harbor.

KDVT - Phoenix/Deer Valley, Arizona, USA
Distance from station: NW 4mi, 7km
Updated: Sat 18 Sep 2021 1353 MST
Mostly cloudy
Mostly cloudy
 Wind from S
Wind: S 7 mph , 11 km/h
Temperature: 93°F , 34°C
Dew Point: 59°F , 15°C
Humidity: 32%
Barometer: 29.94 inHg , 1013.9 hPa
Clouds: Mostly cloudy
Visibility: 10 miles , 16 km
Cloud details: Few Clouds 4500 ft
Partly cloudy 9500 ft
Mostly cloudy 11000 ft
2021/09/18 20:53 KDVT 182053Z 17006KT 10SM FEW045 SCT095 BKN110 34/15 A2994 RMK AO2 RAB22E46 SLP111 P0000 60000 T03390150 56023
KSDL - Scottsdale, Arizona, USA
Distance from station: ESE 6mi, 9km
Updated: Sat 18 Sep 2021 1353 MST
Few Clouds
Few Clouds
 Wind from calm
Wind: Calm
Temperature: 97°F , 36°C
Dew Point: 57°F , 14°C
Humidity: 27%
Barometer: 29.94 inHg , 1013.9 hPa
Clouds: Few Clouds
Visibility: 10 miles , 16 km
Cloud details: Few Clouds 12000 ft
2021/09/18 20:53 KSDL 182053Z 00000KT 10SM FEW120 36/14 A2994 RMK AO2 SLP109 T03560144 58027
 
KPHX - Phoenix/Sky Harbor, Arizona, USA
Distance from station: S 15mi, 24km
Updated: Sat 18 Sep 2021 1451 MST
Heavy rain, Mostly cloudy
Heavy rain, Mostly cloudy
 Wind from WNW
Wind: WNW 18 mph , 30 km/h
Temperature: 82°F , 28°C
Heat Index: 86°F , 30°C
Dew Point: 72°F , 22°C
Humidity: 70%
Barometer: 29.86 inHg , 1011.2 hPa
Summary: Heavy rain
Clouds: Mostly cloudy
Visibility: 6 miles , 10 km
Cloud details: Few Clouds 7000 ft
Partly cloudy 9500 ft
Mostly cloudy 12000 ft
Mostly cloudy 15000 ft
Mostly cloudy 18000 ft
Mostly cloudy 25000 ft
2021/09/18 21:51 KPHX 182151Z 29016KT 6SM R07L/5000VP6000FT +RA FEW070 SCT095 BKN120 BKN150 BKN180 BKN250 28/22 A2986 RMK AO2 PK WND 23026/2126 LTG DSNT S RAB42 PRESFR SLP094 CB DSNT S P0000 T02830217
KGEU - Glendale, Arizona, USA
Distance from station: WSW 19mi, 30km
Updated: Sat 18 Sep 2021 1447 MST
Mostly cloudy
Mostly cloudy
 Wind from SE
Wind: SE 13 mph , 20 km/h, Gust: 16 mph , 26 km/h
Temperature: 88°F , 31°C
Heat Index: 91°F , 33°C
Dew Point: 66°F , 19°C
Humidity: 49%
Barometer: 29.92 inHg , 1013.2 hPa
Clouds: Mostly cloudy
Visibility: 10 miles , 16 km
Cloud details: Partly cloudy 10000 ft
Mostly cloudy 15000 ft
2021/09/18 21:47 KGEU 182147Z 13011G14KT 10SM SCT100 BKN150 31/19 A2992
 
KFFZ - Mesa/Falcon Field, Arizona, USA
Distance from station: SE 21mi, 33km
Updated: Sat 18 Sep 2021 1354 MST
Clear
Clear
 Wind from varies
Wind: varies 5 mph , 7 km/h
Temperature: 99°F , 37°C
Dew Point: 59°F , 15°C
Humidity: 27%
Barometer: 29.91 inHg , 1012.9 hPa
Clouds: Clear
Visibility: 10 miles , 16 km
2021/09/18 20:54 KFFZ 182054Z VRB04KT 10SM CLR 37/15 A2991 RMK AO2 SLP103 T03720150 58027 $
KLUF - Luke AFB/Glendale, Arizona, USA
Distance from station: WSW 23mi, 36km
Updated: Sat 18 Sep 2021 1358 MST
Partly cloudy
Partly cloudy
 Wind from SE
Wind: SE 7 mph , 11 km/h
Temperature: 90°F , 32°C
Heat Index: 96°F , 36°C
Dew Point: 70°F , 21°C
Humidity: 52%
Barometer: 29.90 inHg , 1012.5 hPa
Clouds: Partly cloudy
Visibility: 10 miles , 16 km
Cloud details: Few Clouds 2900 ft
Partly cloudy 6000 ft
Partly cloudy 10000 ft
2021/09/18 20:58 KLUF 182058Z AUTO 13006KT 10SM FEW029 SCT060 SCT100 32/21 A2990 RMK AO2 DZB20E24RAB24E36DZB36E38DZB38E38RAB43E52DZB52E53RAB53E54RAB54E54 SLP111 P0007 60007 T03170209 57022 $
 
KGYR - Goodyear Municipal, Arizona, USA
Distance from station: SW 26mi, 42km
Updated: Sat 18 Sep 2021 1447 MST
Mostly cloudy
Mostly cloudy
 Wind from E
Wind: E 16 mph , 26 km/h
Temperature: 84°F , 29°C
Heat Index: 89°F , 32°C
Dew Point: 72°F , 22°C
Humidity: 66%
Barometer: 29.90 inHg , 1012.5 hPa
Clouds: Mostly cloudy
Visibility: 10 miles , 16 km
Cloud details: Partly cloudy 12000 ft
Mostly cloudy 16000 ft
2021/09/18 21:47 KGYR 182147Z 10014KT 10SM SCT120 BKN160 29/22 A2990
KIWA - Chandler/Mesa, Arizona, USA
Distance from station: SE 32mi, 51km
Updated: Sat 18 Sep 2021 1355 MST
Well-developed dust/sand whirls, Partly cloudy
Well-developed dust/sand whirls, Partly cloudy
 Wind from WNW
Wind: WNW 6 mph , 9 km/h
Temperature: 99°F , 37°C
Dew Point: 59°F , 15°C
Humidity: 27%
Barometer: 29.93 inHg , 1013.5 hPa
Summary: Well-developed dust, Sand whirls
Clouds: Partly cloudy
Visibility: 10 miles , 16 km
Cloud details: Partly cloudy 18000 ft
2021/09/18 20:55 KIWA 182055Z 30005KT 10SM PO SCT180 37/15 A2993
 
KBXK - Buckeye, Arizona, USA
Distance from station: WSW 42mi, 68km
Updated: Sat 18 Sep 2021 1435 MST

 Wind from ESE
Wind: ESE 16 mph , 26 km/h, Gust: 23 mph , 37 km/h
Temperature: 99°F , 37°C
Dew Point: 66°F , 19°C
Humidity: 35%
Barometer: 29.88 inHg , 1011.9 hPa
Visibility: 9 miles , 14 km
2021/09/18 21:35 KBXK 182135Z AUTO 12014G20KT 9SM 37/19 A2988 RMK A01
KCGZ - Casa Grande, Arizona, USA
Distance from station: SSE 50mi, 81km
Updated: Sat 18 Sep 2021 1356 MST
Clear
Clear
 Wind from E
Wind: E 6 mph , 9 km/h
Temperature: 99°F , 37°C
Dew Point: 63°F , 17°C
Humidity: 31%
Barometer: 29.92 inHg , 1013.2 hPa
Clouds: Clear
Visibility: 10 miles , 16 km
2021/09/18 20:56 KCGZ 182056Z AUTO 10005KT 10SM CLR 37/17 A2992 RMK AO2 LTG DSNT W AND NW SLP114 6//// T03670172 58030
 
KPAN - Payson, Arizona, USA
Distance from station: NE 57mi, 91km
Updated: Sat 18 Sep 2021 1435 MST
Clear
Clear
 Wind from S
Wind: S 9 mph , 15 km/h, Gust: 16 mph , 26 km/h
Temperature: 82°F , 28°C
Dew Point: 52°F , 11°C
Humidity: 35%
Barometer: 30.20 inHg , 1022.7 hPa
Clouds: Clear
Visibility: 10 miles , 16 km
2021/09/18 21:35 KPAN 182135Z AUTO 19008G14KT 150V220 10SM CLR 28/11 A3020 RMK AO2
KGBN - Gila Bend (aaf), Arizona, USA
Distance from station: SW 68mi, 109km
Updated: Wed 04 Dec 2019 0855 MST
NOT Current
Mostly cloudy
Mostly cloudy
 Wind from calm
Wind: Calm
Temperature: 55°F , 13°C
Dew Point: 54°F , 12°C
Humidity: 94%
Barometer: 30.02 inHg , 1016.6 hPa
Clouds: Mostly cloudy
Visibility: 10 miles , 16 km
Cloud details: Mostly cloudy 10000 ft
Mostly cloudy 14000 ft
2019/12/04 15:55 KGBN 041555Z 00000KT 10SM BKN100 BKN140 13/12 A3002 RMK AO2A SLP162
 
KPRC - Prescott, Arizona, USA
Distance from station: NNW 73mi, 118km
Updated: Sat 18 Sep 2021 1445 MST
Light rain, Overcast
Light rain, Overcast
 Wind from W
Wind: W 6 mph , 9 km/h
Temperature: 73°F , 23°C
Dew Point: 63°F , 17°C
Humidity: 69%
Barometer: 30.16 inHg , 1021.3 hPa
Summary: Light rain
Clouds: Overcast
Visibility: 7 miles , 11 km
Cloud details: Few Clouds 3700 ft
Mostly cloudy 9500 ft
Overcast 11000 ft
2021/09/18 21:45 KPRC 182145Z AUTO 26005KT 7SM -RA FEW037 BKN095 OVC110 23/17 A3016 RMK AO2 LTG DSNT NE AND SE RAB22 OCNL LTGCCCG W TS W MOV N P0001 T02330172
KSEZ - Sedona, Arizona, USA
Distance from station: N 84mi, 135km
Updated: Sat 18 Sep 2021 1435 MST
Partly cloudy
Partly cloudy
 Wind from S
Wind: S 10 mph , 17 km/h, Gust: 25 mph , 41 km/h
Temperature: 84°F , 29°C
Dew Point: 54°F , 12°C
Humidity: 35%
Barometer: 30.13 inHg , 1020.3 hPa
Clouds: Partly cloudy
Visibility: 10 miles , 16 km
Cloud details: Partly cloudy 6500 ft
Partly cloudy 8000 ft
Partly cloudy 10000 ft
2021/09/18 21:35 KSEZ 182135Z AUTO 18009G22KT 150V210 10SM SCT065 SCT080 SCT100 29/12 A3013 RMK AO2
 
KFLG - Flagstaff, Arizona, USA
Distance from station: N 105mi, 168km
Updated: Sat 18 Sep 2021 1357 MST
Partly cloudy
Partly cloudy
 Wind from SSW
Wind: SSW 14 mph , 22 km/h, Gust: 22 mph , 35 km/h
Temperature: 72°F , 22°C
Dew Point: 50°F , 10°C
Humidity: 47%
Barometer: 30.29 inHg , 1025.7 hPa
Clouds: Partly cloudy
Visibility: 10 miles , 16 km
Cloud details: Few Clouds 6000 ft
Partly cloudy 9000 ft
Partly cloudy 10000 ft
2021/09/18 20:57 KFLG 182057Z 21012G19KT 10SM FEW060 SCT090 SCT100 22/10 A3029 RMK AO2 LTG DSNT W AND NW SLP167 T02220100 58020
KRYN - Tucson/Ryan Field, Arizona, USA
Distance from station: SSE 114mi, 184km
Updated: Sat 18 Sep 2021 1445 MST
Clear
Clear
 Wind from NW
Wind: NW 5 mph , 7 km/h
Temperature: 93°F , 34°C
Dew Point: 59°F , 15°C
Humidity: 32%
Barometer: 29.96 inHg , 1014.6 hPa
Clouds: Clear
2021/09/18 21:45 KRYN 182145Z 32004KT CLR 34/15 A2996
 
KCMR - Williams Clark, Arizona, USA
Distance from station: N 115mi, 185km
Updated: Sat 18 Sep 2021 1435 MST
Mostly cloudy
Mostly cloudy
 Wind from SSW
Wind: SSW 10 mph , 17 km/h
Temperature: 68°F , 20°C
Dew Point: 57°F , 14°C
Humidity: 69%
Barometer: 30.28 inHg , 1025.4 hPa
Clouds: Mostly cloudy
Visibility: 10 miles , 16 km
Cloud details: Few Clouds 2300 ft
Partly cloudy 6500 ft
Mostly cloudy 9000 ft
2021/09/18 21:35 KCMR 182135Z AUTO 20009KT 10SM FEW023 SCT065 BKN090 20/14 A3028 RMK AO2
KINW - Winslow, Arizona, USA
Distance from station: NE 121mi, 194km
Updated: Sat 18 Sep 2021 1356 MST
Partly cloudy
Partly cloudy
 Wind from SW
Wind: SW 16 mph , 26 km/h, Gust: 24 mph , 39 km/h
Temperature: 91°F , 33°C
Dew Point: 46°F , 8°C
Humidity: 21%
Barometer: 30.13 inHg , 1020.3 hPa
Clouds: Partly cloudy
Visibility: 10 miles , 16 km
Cloud details: Partly cloudy 9000 ft
2021/09/18 20:56 KINW 182056Z AUTO 23014G21KT 10SM SCT090 33/08 A3013 RMK AO2 LTG DSNT S SLP121 T03280083 56030
 
KTUS - Tucson, Arizona, USA
Distance from station: SSE 121mi, 195km
Updated: Sat 18 Sep 2021 1353 MST
Clear
Clear
 Wind from WSW
Wind: WSW 7 mph , 11 km/h
Temperature: 93°F , 34°C
Dew Point: 57°F , 14°C
Humidity: 30%
Barometer: 30.02 inHg , 1016.6 hPa
Clouds: Clear
Visibility: 10 miles , 16 km
2021/09/18 20:53 KTUS 182053Z 25006KT 10SM CLR 34/14 A3002 RMK AO2 SLP114 60000 T03440144 58029 $
KDMA - Davis AFB/Tucson, Arizona, USA
Distance from station: SE 122mi, 196km
Updated: Sat 18 Sep 2021 1358 MST
Clear
Clear
 Wind from calm
Wind: Calm
Temperature: 93°F , 34°C
Dew Point: 57°F , 14°C
Humidity: 30%
Barometer: 30.00 inHg , 1015.9 hPa
Clouds: Clear
Visibility: 10 miles , 16 km
2021/09/18 20:58 KDMA 182058Z AUTO 00000KT 10SM CLR 34/14 A3000 RMK AO2 SLP114 T03420141 57027 $
 
KSOW - Show Low Municipal, Arizona, USA
Distance from station: ENE 123mi, 198km
Updated: Sat 18 Sep 2021 1435 MST
Few Clouds
Few Clouds
 Wind from S
Wind: S 14 mph , 22 km/h, Gust: 21 mph , 33 km/h
Temperature: 77°F , 25°C
Dew Point: 45°F , 7°C
Humidity: 32%
Barometer: 30.28 inHg , 1025.4 hPa
Clouds: Few Clouds
Visibility: 10 miles , 16 km
Cloud details: Few Clouds 12000 ft
2021/09/18 21:35 KSOW 182135Z AUTO 19012G18KT 10SM FEW120 25/07 A3028 RMK AO2
KSAD - Safford, Arizona, USA
Distance from station: ESE 148mi, 238km
Updated: Sat 18 Sep 2021 1451 MST
Clear
Clear
 Wind from SSE
Wind: SSE 8 mph , 13 km/h
Temperature: 97°F , 36°C
Dew Point: 52°F , 11°C
Humidity: 22%
Barometer: 29.99 inHg , 1015.6 hPa
Clouds: Clear
Visibility: 10 miles , 16 km
2021/09/18 21:51 KSAD 182151Z AUTO 16007KT 10SM CLR 36/11 A2999 RMK AO2 SLP098 T03610106